Time;durP1;ratioP1;P1;durP2;ratioP2;P2;SDS_P1;SDS_P2;PMS_P1;PMS_P2;Temp;Humidity;BMP_temperature;BMP_pressure;BME280_temperature;BME280_humidity;BME280_pressure;Samples;Min_cycle;Max_cycle;Signal;HPM_P1;HPM_P2
2023/01/18 00:01:18;;;;;;;4.75;3.00;;;;;;;;;;4937716;29;20031;-91
2023/01/18 00:03:52;;;;;;;5.35;3.92;;;;;;;;;;4937761;29;20027;-91
2023/01/18 00:06:18;;;;;;;6.13;4.13;;;;;;;;;;4937643;29;20027;-91
2023/01/18 00:08:44;;;;;;;5.30;3.83;;;;;;;;;;4937877;29;20028;-90
2023/01/18 00:11:12;;;;;;;4.63;3.40;;;;;;;;;;4937498;29;20027;-92
2023/01/18 00:13:42;;;;;;;4.70;3.33;;;;;;;;;;4937218;29;20032;-92
2023/01/18 00:16:11;;;;;;;3.42;2.40;;;;;;;;;;4937656;29;20473;-91
2023/01/18 00:18:37;;;;;;;4.32;2.88;;;;;;;;;;4937295;29;20110;-91
2023/01/18 00:21:04;;;;;;;6.38;3.60;;;;;;;;;;4937113;29;20114;-91
2023/01/18 00:23:43;;;;;;;4.38;2.85;;;;;;;;;;4937052;29;20041;-91
2023/01/18 00:26:19;;;;;;;4.50;2.90;;;;;;;;;;4937559;29;20035;-93
2023/01/18 00:28:46;;;;;;;5.10;3.00;;;;;;;;;;4937266;29;20031;-92
2023/01/18 00:31:20;;;;;;;4.10;3.03;;;;;;;;;;4937340;29;20082;-91
2023/01/18 00:33:47;;;;;;;5.22;3.35;;;;;;;;;;4937289;28;20064;-91
2023/01/18 00:36:16;;;;;;;5.38;3.70;;;;;;;;;;4936954;29;20505;-92
2023/01/18 00:38:52;;;;;;;6.43;3.60;;;;;;;;;;4937553;29;20027;-90
2023/01/18 00:41:19;;;;;;;3.63;2.53;;;;;;;;;;4936298;29;20038;-90
2023/01/18 00:43:45;;;;;;;4.38;3.22;;;;;;;;;;4937320;29;20028;-91
2023/01/18 00:46:21;;;;;;;3.67;2.25;;;;;;;;;;4937165;29;20031;-91
2023/01/18 00:48:47;;;;;;;4.40;2.60;;;;;;;;;;4936467;29;20035;-92
2023/01/18 00:51:14;;;;;;;3.58;2.45;;;;;;;;;;4935020;29;20035;-92
2023/01/18 00:53:43;;;;;;;3.25;2.10;;;;;;;;;;4935734;29;20679;-92
2023/01/18 00:56:11;;;;;;;3.35;2.20;;;;;;;;;;4937016;29;20440;-91
2023/01/18 00:58:37;;;;;;;3.05;2.05;;;;;;;;;;4936927;29;20110;-90
2023/01/18 01:01:04;;;;;;;4.93;2.38;;;;;;;;;;4937884;29;20114;-90
2023/01/18 01:09:00;;;;;;;3.63;2.25;;;;;;;;;;4998018;28;20093;-91
2023/01/18 01:11:27;;;;;;;3.65;1.92;;;;;;;;;;4982380;28;20037;-92
2023/01/18 01:28:00;;;;;;;3.55;2.22;;;;;;;;;;5003472;28;20075;-94
2023/01/18 01:30:34;;;;;;;2.80;1.90;;;;;;;;;;4995563;28;20657;-92
2023/01/18 01:33:00;;;;;;;4.25;2.03;;;;;;;;;;4997644;28;20037;-94
2023/01/18 01:35:29;;;;;;;4.10;2.33;;;;;;;;;;4978097;28;20117;-94
2023/01/18 01:37:55;;;;;;;3.92;2.30;;;;;;;;;;4993832;28;20026;-90
2023/01/18 01:40:21;;;;;;;2.83;1.77;;;;;;;;;;4993931;28;20041;-90
2023/01/18 01:42:54;;;;;;;2.58;1.63;;;;;;;;;;4993532;28;20026;-89
2023/01/18 01:45:21;;;;;;;4.90;2.38;;;;;;;;;;4993700;28;20041;-91
2023/01/18 01:47:48;;;;;;;3.20;1.92;;;;;;;;;;4993257;28;20046;-91
2023/01/18 01:50:22;;;;;;;3.22;1.65;;;;;;;;;;4993375;28;20072;-91
2023/01/18 01:52:48;;;;;;;2.55;1.50;;;;;;;;;;4993556;28;20030;-91
2023/01/18 01:55:21;;;;;;;2.50;1.42;;;;;;;;;;4993729;28;20030;-90
2023/01/18 01:57:54;;;;;;;2.03;1.40;;;;;;;;;;4994097;28;20121;-91
2023/01/18 02:00:23;;;;;;;9.80;4.93;;;;;;;;;;4993442;28;20038;-91
2023/01/18 02:03:18;;;;;;;12.63;6.72;;;;;;;;;;4992608;28;20087;-90
2023/01/18 02:05:49;;;;;;;5.28;2.80;;;;;;;;;;4974257;28;20056;-94
2023/01/18 02:08:21;;;;;;;6.05;3.92;;;;;;;;;;4993490;28;20061;-90
2023/01/18 02:10:47;;;;;;;10.75;6.53;;;;;;;;;;4989469;28;20042;-91
2023/01/18 02:13:14;;;;;;;8.77;5.28;;;;;;;;;;4976577;28;20054;-90
2023/01/18 02:15:50;;;;;;;8.23;4.80;;;;;;;;;;4994713;28;20022;-90
2023/01/18 02:18:16;;;;;;;9.52;5.63;;;;;;;;;;4992956;28;20027;-91
2023/01/18 02:20:51;;;;;;;5.10;3.25;;;;;;;;;;4993410;28;20037;-91
2023/01/18 02:23:17;;;;;;;4.43;2.28;;;;;;;;;;4992135;28;20038;-91
2023/01/18 02:26:02;;;;;;;3.22;2.03;;;;;;;;;;4993259;28;20121;-91
2023/01/18 02:28:33;;;;;;;3.70;2.47;;;;;;;;;;4993423;28;20026;-90
2023/01/18 02:31:22;;;;;;;3.53;2.47;;;;;;;;;;4993508;28;20034;-91
2023/01/18 02:46:49;;;;;;;4.20;2.83;;;;;;;;;;4974971;28;20090;-90
2023/01/18 02:49:22;;;;;;;4.38;2.58;;;;;;;;;;4957416;28;20627;-88
2023/01/18 02:51:48;;;;;;;4.72;3.03;;;;;;;;;;4957693;28;20033;-89
2023/01/18 02:54:23;;;;;;;4.32;3.17;;;;;;;;;;4958298;28;20042;-89
2023/01/18 02:56:52;;;;;;;5.72;3.50;;;;;;;;;;4958517;28;20041;-89
2023/01/18 02:59:41;;;;;;;5.32;3.85;;;;;;;;;;4959122;28;20464;-89
2023/01/18 03:02:13;;;;;;;3.97;2.75;;;;;;;;;;4959300;28;20027;-89
2023/01/18 03:04:52;;;;;;;4.47;3.00;;;;;;;;;;4981618;28;20019;-89
2023/01/18 03:07:39;;;;;;;4.70;2.75;;;;;;;;;;4965306;28;20100;-89
2023/01/18 03:10:09;;;;;;;3.60;2.28;;;;;;;;;;4961167;28;20038;-89
2023/01/18 03:15:39;;;;;;;5.15;2.95;;;;;;;;;;4965430;28;20031;-88
2023/01/18 03:18:18;;;;;;;3.00;1.83;;;;;;;;;;4960769;28;20027;-92
2023/01/18 03:20:47;;;;;;;2.67;1.88;;;;;;;;;;4962148;28;20022;-89
2023/01/18 03:23:36;;;;;;;3.40;1.75;;;;;;;;;;4962493;28;20023;-89
2023/01/18 03:26:04;;;;;;;2.90;1.42;;;;;;;;;;4960653;28;20041;-89
2023/01/18 03:34:19;;;;;;;1.95;0.90;;;;;;;;;;4978089;28;20082;-89
2023/01/18 03:36:50;;;;;;;1.40;0.60;;;;;;;;;;4960948;28;20854;-89
2023/01/18 03:39:18;;;;;;;1.25;0.70;;;;;;;;;;4960593;28;20031;-88
2023/01/18 03:41:49;;;;;;;1.60;0.95;;;;;;;;;;4960331;28;20031;-88
2023/01/18 03:44:28;;;;;;;3.67;0.93;;;;;;;;;;4960343;28;20031;-88
2023/01/18 03:46:55;;;;;;;2.05;1.05;;;;;;;;;;4960287;28;20047;-88
2023/01/18 03:52:52;;;;;;;1.00;0.50;;;;;;;;;;4861737;29;20047;-88
2023/01/18 03:55:21;;;;;;;2.88;0.82;;;;;;;;;;4864469;29;20113;-89
2023/01/18 03:57:52;;;;;;;1.88;0.93;;;;;;;;;;4953754;28;20102;-88
2023/01/18 04:00:19;;;;;;;1.38;0.70;;;;;;;;;;4960106;28;20053;-88
2023/01/18 04:02:46;;;;;;;1.48;0.73;;;;;;;;;;4960286;28;20113;-88
2023/01/18 04:05:13;;;;;;;1.20;0.73;;;;;;;;;;4960104;28;20027;-87
2023/01/18 04:07:41;;;;;;;1.38;0.65;;;;;;;;;;4977754;28;20113;-93
2023/01/18 04:10:08;;;;;;;1.70;1.00;;;;;;;;;;4987030;28;20046;-88
2023/01/18 04:12:34;;;;;;;2.10;0.95;;;;;;;;;;4975095;28;20042;-88
2023/01/18 04:15:00;;;;;;;5.60;2.50;;;;;;;;;;4960861;28;20031;-88
2023/01/18 04:17:27;;;;;;;3.17;1.95;;;;;;;;;;4976972;28;20106;-89
2023/01/18 04:19:53;;;;;;;2.90;1.20;;;;;;;;;;4959737;28;20097;-88
2023/01/18 04:22:37;;;;;;;3.22;1.33;;;;;;;;;;4975572;28;20129;-89
2023/01/18 04:25:03;;;;;;;2.92;1.20;;;;;;;;;;4959515;28;20042;-89
2023/01/18 04:27:30;;;;;;;2.10;1.20;;;;;;;;;;4959509;28;20042;-89
2023/01/18 04:29:57;;;;;;;1.95;1.05;;;;;;;;;;4958879;28;20027;-88
2023/01/18 04:32:23;;;;;;;3.00;1.00;;;;;;;;;;4958042;28;20030;-89
2023/01/18 04:34:55;;;;;;;2.35;1.00;;;;;;;;;;4958045;28;20031;-89
2023/01/18 04:37:29;;;;;;;1.63;1.00;;;;;;;;;;4959706;28;20543;-89
2023/01/18 04:39:55;;;;;;;;;;;;;;;;;;4959797;28;20461;-92
2023/01/18 04:42:21;;;;;;;1.95;1.20;;;;;;;;;;4959389;28;19921;-90
2023/01/18 04:44:47;;;;;;;2.45;1.40;;;;;;;;;;4976079;28;20480;-89
2023/01/18 04:47:13;;;;;;;2.90;1.80;;;;;;;;;;4978849;28;20074;-88
2023/01/18 04:49:42;;;;;;;2.70;2.00;;;;;;;;;;4960259;28;20054;-92
2023/01/18 04:52:08;;;;;;;3.28;2.30;;;;;;;;;;4971124;28;20031;-86
2023/01/18 04:54:34;;;;;;;2.30;1.50;;;;;;;;;;4975590;28;20082;-88
2023/01/18 04:57:01;;;;;;;3.38;2.20;;;;;;;;;;4969507;28;20039;-90
2023/01/18 04:59:30;;;;;;;3.42;2.40;;;;;;;;;;4960935;28;20478;-89
2023/01/18 05:01:56;;;;;;;6.75;4.13;;;;;;;;;;4958942;28;20063;-89
2023/01/18 05:04:22;;;;;;;4.82;3.13;;;;;;;;;;4958880;28;20392;-89
2023/01/18 05:06:48;;;;;;;3.83;2.50;;;;;;;;;;4958881;28;20031;-89
2023/01/18 05:09:14;;;;;;;2.70;1.63;;;;;;;;;;4958900;28;20117;-88
2023/01/18 05:11:44;;;;;;;3.58;2.38;;;;;;;;;;4959258;28;20027;-92
2023/01/18 05:14:10;;;;;;;3.50;2.38;;;;;;;;;;4958823;28;20038;-88
2023/01/18 05:16:36;;;;;;;3.78;2.80;;;;;;;;;;4959098;28;20488;-88
2023/01/18 05:19:05;;;;;;;5.43;2.50;;;;;;;;;;4959851;28;20069;-87
2023/01/18 05:21:31;;;;;;;4.03;2.70;;;;;;;;;;4960913;28;20514;-88
2023/01/18 05:23:57;;;;;;;4.18;3.00;;;;;;;;;;4959662;28;20019;-88
2023/01/18 05:26:26;;;;;;;4.20;2.80;;;;;;;;;;4958343;28;20042;-91
2023/01/18 05:28:57;;;;;;;3.45;2.00;;;;;;;;;;4957885;28;20034;-91
2023/01/18 05:31:26;;;;;;;6.63;3.85;;;;;;;;;;4958314;28;20089;-89
2023/01/18 05:33:52;;;;;;;8.77;5.30;;;;;;;;;;4958246;28;20023;-90
2023/01/18 05:36:21;;;;;;;15.93;8.35;;;;;;;;;;4958325;28;20083;-93
2023/01/18 05:38:48;;;;;;;23.67;12.52;;;;;;;;;;4958185;28;20022;-90
2023/01/18 05:41:14;;;;;;;28.60;14.55;;;;;;;;;;4958447;28;20117;-90
2023/01/18 05:43:41;;;;;;;26.58;13.55;;;;;;;;;;4958085;28;20059;-90
2023/01/18 05:46:07;;;;;;;24.98;12.55;;;;;;;;;;4958049;28;20022;-90
2023/01/18 05:48:36;;;;;;;16.88;9.13;;;;;;;;;;4958092;28;20379;-94
2023/01/18 05:51:12;;;;;;;42.45;17.23;;;;;;;;;;4958144;28;20092;-89
2023/01/18 05:53:40;;;;;;;20.55;8.38;;;;;;;;;;4957878;28;20030;-89
2023/01/18 05:56:17;;;;;;;17.33;7.55;;;;;;;;;;4957704;28;20034;-94
2023/01/18 05:58:43;;;;;;;10.00;4.90;;;;;;;;;;4958196;28;20074;-89
2023/01/18 06:01:12;;;;;;;22.10;11.23;;;;;;;;;;4958100;28;20038;-95
2023/01/18 06:03:44;;;;;;;8.55;4.80;;;;;;;;;;4958836;28;20085;-92
2023/01/18 06:06:11;;;;;;;8.35;5.03;;;;;;;;;;4962396;28;20030;-89
2023/01/18 06:08:37;;;;;;;5.90;3.30;;;;;;;;;;4957004;28;20039;-94
2023/01/18 06:11:03;;;;;;;4.38;3.05;;;;;;;;;;4974988;28;20030;-87
2023/01/18 06:13:30;;;;;;;7.30;4.53;;;;;;;;;;4973923;28;20038;-89
2023/01/18 06:15:57;;;;;;;4.53;3.60;;;;;;;;;;4954054;28;20033;-87
2023/01/18 06:18:44;;;;;;;6.00;4.20;;;;;;;;;;4940689;29;20035;-90
2023/01/18 06:21:10;;;;;;;6.43;4.18;;;;;;;;;;4938486;29;20024;-88
2023/01/18 06:27:03;;;;;;;9.73;5.30;;;;;;;;;;4948714;28;20086;-95
2023/01/18 06:29:35;;;;;;;8.00;4.85;;;;;;;;;;4863739;29;20526;-88
2023/01/18 06:35:27;;;;;;;7.63;5.00;;;;;;;;;;4882234;29;20872;-94
2023/01/18 06:37:55;;;;;;;8.05;5.18;;;;;;;;;;4867468;29;20048;-93
2023/01/18 06:40:21;;;;;;;6.95;4.43;;;;;;;;;;4919721;29;20036;-88
2023/01/18 06:42:53;;;;;;;5.88;3.95;;;;;;;;;;4943258;29;20059;-94
2023/01/18 06:45:20;;;;;;;5.90;3.92;;;;;;;;;;4949599;28;20023;-90
2023/01/18 06:48:14;;;;;;;5.43;3.75;;;;;;;;;;4957778;29;20058;-88
2023/01/18 06:51:03;;;;;;;5.10;3.33;;;;;;;;;;4945883;29;20034;-92
2023/01/18 06:53:32;;;;;;;5.35;3.45;;;;;;;;;;4964191;29;20027;-89
2023/01/18 06:56:01;;;;;;;5.78;4.00;;;;;;;;;;4947801;29;20027;-89
2023/01/18 06:58:37;;;;;;;6.03;3.92;;;;;;;;;;4942765;29;20090;-86
2023/01/18 07:01:39;;;;;;;5.72;3.90;;;;;;;;;;4941642;29;20130;-88
2023/01/18 07:04:05;;;;;;;5.95;4.22;;;;;;;;;;4942634;29;20023;-87
2023/01/18 07:06:32;;;;;;;12.02;5.70;;;;;;;;;;4941884;29;20067;-91
2023/01/18 07:09:09;;;;;;;6.78;4.10;;;;;;;;;;4942261;29;20031;-88
2023/01/18 07:11:41;;;;;;;6.28;4.32;;;;;;;;;;4941669;29;20023;-87
2023/01/18 07:14:10;;;;;;;14.10;6.55;;;;;;;;;;4943296;29;20066;-91
2023/01/18 07:16:39;;;;;;;12.32;7.22;;;;;;;;;;4944291;29;20463;-88
2023/01/18 07:19:09;;;;;;;11.88;7.38;;;;;;;;;;4950513;28;20019;-89
2023/01/18 07:21:38;;;;;;;12.50;7.63;;;;;;;;;;4961733;28;20038;-89
2023/01/18 07:24:04;;;;;;;14.70;8.00;;;;;;;;;;4964543;28;20034;-89
2023/01/18 07:26:33;;;;;;;14.50;8.32;;;;;;;;;;4960165;28;20034;-90
2023/01/18 07:29:00;;;;;;;14.55;8.15;;;;;;;;;;4960661;28;20065;-90
2023/01/18 07:37:51;;;;;;;18.90;11.10;;;;;;;;;;4937278;29;20062;-88
2023/01/18 07:40:17;;;;;;;17.85;10.60;;;;;;;;;;4960520;28;20136;-89
2023/01/18 07:42:47;;;;;;;16.48;9.73;;;;;;;;;;4959595;28;20066;-90
2023/01/18 07:45:15;;;;;;;12.75;7.28;;;;;;;;;;4959747;28;20484;-88
2023/01/18 07:47:52;;;;;;;9.70;5.68;;;;;;;;;;4970301;23;20055;-88
2023/01/18 07:50:19;;;;;;;5.85;3.45;;;;;;;;;;4939932;29;20031;-88
2023/01/18 07:53:07;;;;;;;5.75;3.15;;;;;;;;;;4958462;28;20031;-90
2023/01/18 07:55:37;;;;;;;4.70;3.05;;;;;;;;;;4960143;28;20384;-90
2023/01/18 07:58:03;;;;;;;6.05;3.53;;;;;;;;;;4960250;28;20499;-90
2023/01/18 08:00:35;;;;;;;4.72;2.80;;;;;;;;;;4960819;28;20030;-88
2023/01/18 08:03:01;;;;;;;5.60;3.35;;;;;;;;;;4959759;28;20026;-90
2023/01/18 08:05:28;;;;;;;7.03;4.70;;;;;;;;;;4960042;28;20048;-89
2023/01/18 08:07:54;;;;;;;7.60;4.57;;;;;;;;;;4959863;28;20122;-87
2023/01/18 08:10:21;;;;;;;7.85;4.70;;;;;;;;;;4977040;28;20062;-90
2023/01/18 08:13:02;;;;;;;6.82;4.57;;;;;;;;;;4976290;28;20058;-88
2023/01/18 08:15:29;;;;;;;5.63;3.80;;;;;;;;;;4973873;28;20437;-90
2023/01/18 08:17:55;;;;;;;7.75;3.38;;;;;;;;;;4940093;29;20039;-90
2023/01/18 08:20:39;;;;;;;6.13;3.30;;;;;;;;;;4939259;29;20110;-93
2023/01/18 08:23:05;;;;;;;7.20;4.22;;;;;;;;;;4956972;29;20117;-91
2023/01/18 08:25:37;;;;;;;6.93;4.60;;;;;;;;;;4940190;29;20539;-92
2023/01/18 08:28:07;;;;;;;8.20;5.25;;;;;;;;;;4941367;29;20118;-90
2023/01/18 08:30:47;;;;;;;9.75;5.53;;;;;;;;;;4941301;29;20027;-89
2023/01/18 08:33:21;;;;;;;5.45;3.90;;;;;;;;;;4942004;29;20118;-93
2023/01/18 08:35:47;;;;;;;6.10;3.83;;;;;;;;;;4958562;29;20027;-91
2023/01/18 08:38:16;;;;;;;7.32;4.50;;;;;;;;;;4941871;29;20027;-90
2023/01/18 08:40:43;;;;;;;5.72;3.47;;;;;;;;;;4955087;28;20039;-89
2023/01/18 08:43:10;;;;;;;6.05;3.97;;;;;;;;;;4949147;29;20109;-87
2023/01/18 08:45:44;;;;;;;5.85;3.70;;;;;;;;;;4940129;29;20031;-88
2023/01/18 08:48:13;;;;;;;5.07;3.50;;;;;;;;;;4936926;29;20133;-87
2023/01/18 08:50:45;;;;;;;6.43;4.32;;;;;;;;;;4944754;29;20036;-87
2023/01/18 08:53:12;;;;;;;6.30;4.53;;;;;;;;;;4943028;29;20043;-87
2023/01/18 08:55:41;;;;;;;6.10;4.10;;;;;;;;;;4936652;29;20146;-87
2023/01/18 08:58:07;;;;;;;5.75;4.10;;;;;;;;;;4936563;29;20095;-87
2023/01/18 09:00:33;;;;;;;5.68;4.03;;;;;;;;;;4936481;29;20028;-91
2023/01/18 09:03:06;;;;;;;8.45;5.05;;;;;;;;;;4935787;29;20023;-89
2023/01/18 09:08:35;;;;;;;9.73;5.68;;;;;;;;;;4941003;29;20058;-92
2023/01/18 09:14:18;;;;;;;8.35;6.15;;;;;;;;;;4938066;29;20046;-90
2023/01/18 09:24:58;;;;;;;10.05;7.00;;;;;;;;;;5144858;23;20515;-90
2023/01/18 09:27:30;;;;;;;11.60;7.80;;;;;;;;;;4977770;28;20088;-88
2023/01/18 09:30:02;;;;;;;10.65;7.07;;;;;;;;;;4993553;28;20034;-88
2023/01/18 09:32:31;;;;;;;11.27;8.30;;;;;;;;;;4994206;28;20034;-91
2023/01/18 09:35:04;;;;;;;10.15;7.82;;;;;;;;;;4993901;28;20030;-88
2023/01/18 09:37:31;;;;;;;10.43;7.38;;;;;;;;;;4994109;28;20034;-90
2023/01/18 09:40:03;;;;;;;9.55;7.38;;;;;;;;;;4994043;28;20049;-89
2023/01/18 09:42:43;;;;;;;9.52;7.13;;;;;;;;;;4993229;28;20463;-90
2023/01/18 09:45:30;;;;;;;10.38;7.38;;;;;;;;;;4996558;28;20068;-86
2023/01/18 09:48:28;;;;;;;10.60;7.70;;;;;;;;;;5011912;28;20090;-90
2023/01/18 09:50:56;;;;;;;9.82;7.57;;;;;;;;;;4992770;28;20037;-91
2023/01/18 09:56:55;;;;;;;8.00;6.45;;;;;;;;;;4995073;28;20118;-91
2023/01/18 09:59:23;;;;;;;7.72;6.28;;;;;;;;;;4948456;28;20129;-89
2023/01/18 10:01:53;;;;;;;7.78;6.15;;;;;;;;;;4995747;28;20471;-90
2023/01/18 10:04:31;;;;;;;7.38;6.65;;;;;;;;;;4997254;28;20475;-88
2023/01/18 10:07:04;;;;;;;7.10;6.43;;;;;;;;;;4973964;28;20038;-90
2023/01/18 10:09:36;;;;;;;7.90;7.10;;;;;;;;;;4977249;28;20030;-91
2023/01/18 10:12:03;;;;;;;6.23;5.63;;;;;;;;;;4963253;28;20038;-89
2023/01/18 10:14:51;;;;;;;7.13;6.43;;;;;;;;;;4994421;28;20038;-89
2023/01/18 10:17:55;;;;;;;7.85;7.05;;;;;;;;;;4965495;28;20022;-88
2023/01/18 10:20:33;;;;;;;7.32;6.43;;;;;;;;;;4864887;29;20029;-94
2023/01/18 10:23:20;;;;;;;7.22;6.53;;;;;;;;;;4881417;29;20479;-91
2023/01/18 10:26:06;;;;;;;8.40;7.60;;;;;;;;;;4882196;29;20040;-90
2023/01/18 10:28:58;;;;;;;7.30;6.60;;;;;;;;;;4881975;29;20056;-90
2023/01/18 10:31:39;;;;;;;7.80;7.00;;;;;;;;;;4894021;29;20036;-88
2023/01/18 10:34:15;;;;;;;8.73;7.18;;;;;;;;;;4910199;28;20059;-90
2023/01/18 10:36:43;;;;;;;7.93;7.13;;;;;;;;;;4964296;28;20015;-89
2023/01/18 10:39:24;;;;;;;7.78;7.05;;;;;;;;;;5294530;23;20075;-91
2023/01/18 10:41:50;;;;;;;7.70;7.00;;;;;;;;;;4963599;28;20035;-91
2023/01/18 10:44:20;;;;;;;8.73;7.93;;;;;;;;;;4958148;28;20027;-91
2023/01/18 10:46:54;;;;;;;8.18;7.28;;;;;;;;;;4959074;28;20133;-91
2023/01/18 10:49:33;;;;;;;9.25;8.25;;;;;;;;;;4975006;28;20081;-89
2023/01/18 10:52:18;;;;;;;8.48;7.53;;;;;;;;;;4957702;28;20045;-88
2023/01/18 10:55:11;;;;;;;9.32;7.93;;;;;;;;;;4957249;28;20030;-88
2023/01/18 10:57:42;;;;;;;12.00;9.30;;;;;;;;;;4954125;28;20484;-88
2023/01/18 11:00:34;;;;;;;10.70;9.43;;;;;;;;;;4957345;28;20027;-87
2023/01/18 11:03:04;;;;;;;10.43;8.98;;;;;;;;;;4928869;28;20041;-89
2023/01/18 11:05:38;;;;;;;11.90;9.70;;;;;;;;;;4957483;28;20038;-90
2023/01/18 11:08:30;;;;;;;10.98;9.50;;;;;;;;;;4957761;28;20142;-88
2023/01/18 11:14:29;;;;;;;16.10;9.68;;;;;;;;;;4950232;28;20046;-90
2023/01/18 11:17:10;;;;;;;13.40;9.93;;;;;;;;;;4957333;28;20055;-87
2023/01/18 11:19:36;;;;;;;14.15;10.52;;;;;;;;;;4958972;28;20115;-88
2023/01/18 11:22:03;;;;;;;14.10;9.25;;;;;;;;;;4957278;28;20031;-88
2023/01/18 11:24:36;;;;;;;12.63;9.73;;;;;;;;;;4961016;28;20062;-90
2023/01/18 11:27:05;;;;;;;;;;;;;;;;;;4950304;28;20043;-92
2023/01/18 11:29:38;;;;;;;12.82;8.15;;;;;;;;;;4959745;28;19964;-91
2023/01/18 11:35:22;;;;;;;11.40;8.00;;;;;;;;;;4978943;28;20122;-89
2023/01/18 11:37:54;;;;;;;10.25;7.53;;;;;;;;;;4961114;28;20038;-91
2023/01/18 11:43:21;;;;;;;9.23;6.80;;;;;;;;;;4958498;29;20038;-91
2023/01/18 11:45:47;;;;;;;8.38;6.25;;;;;;;;;;4940988;29;20511;-88
2023/01/18 11:48:23;;;;;;;9.13;6.40;;;;;;;;;;4941126;29;20174;-89
2023/01/18 11:50:52;;;;;;;8.80;6.45;;;;;;;;;;4958185;29;20031;-89
2023/01/18 11:53:49;;;;;;;11.38;6.60;;;;;;;;;;4940790;29;20031;-93
2023/01/18 11:56:15;;;;;;;7.85;6.10;;;;;;;;;;4940883;29;20027;-90
2023/01/18 11:58:45;;;;;;;7.65;5.88;;;;;;;;;;4940907;29;20172;-89
2023/01/18 12:01:24;;;;;;;8.60;6.65;;;;;;;;;;4940781;29;20489;-88
2023/01/18 12:11:46;;;;;;;6.95;5.63;;;;;;;;;;4938919;29;20186;-87
2023/01/18 12:14:34;;;;;;;8.25;5.82;;;;;;;;;;4938565;29;20061;-87
2023/01/18 12:17:12;;;;;;;8.75;5.85;;;;;;;;;;4939237;29;20032;-87
2023/01/18 12:26:12;;;;;;;7.63;4.82;;;;;;;;;;4888042;29;20034;-94
2023/01/18 12:28:53;;;;;;;8.90;4.70;;;;;;;;;;4866437;29;20037;-90
2023/01/18 12:31:48;;;;;;;5.40;4.00;;;;;;;;;;4881930;29;20169;-87
2023/01/18 12:34:25;;;;;;;7.80;4.28;;;;;;;;;;4893832;29;20067;-87
2023/01/18 12:37:08;;;;;;;8.15;4.15;;;;;;;;;;4884826;29;20039;-87
2023/01/18 12:39:45;;;;;;;6.20;3.80;;;;;;;;;;4892811;29;20036;-86
2023/01/18 12:42:23;;;;;;;5.88;3.78;;;;;;;;;;4918765;29;20024;-88
2023/01/18 12:45:02;;;;;;;4.63;3.60;;;;;;;;;;4920415;29;20036;-87
2023/01/18 12:47:38;;;;;;;5.07;3.30;;;;;;;;;;4923252;29;20072;-88
2023/01/18 12:50:28;;;;;;;5.53;2.85;;;;;;;;;;4924273;29;20052;-95
2023/01/18 12:52:58;;;;;;;4.85;2.83;;;;;;;;;;4920288;29;20168;-86
2023/01/18 12:55:35;;;;;;;3.92;3.00;;;;;;;;;;4917202;29;20119;-86
2023/01/18 12:58:02;;;;;;;5.53;2.83;;;;;;;;;;4916806;29;20037;-87
2023/01/18 13:00:34;;;;;;;4.60;2.88;;;;;;;;;;4917170;29;20505;-87
2023/01/18 13:03:04;;;;;;;4.82;2.92;;;;;;;;;;4937532;29;20056;-88
2023/01/18 13:06:02;;;;;;;;;;;;;;;;;;;;;
2023/01/18 13:08:50;;;;;;;4.57;3.22;;;;;;;;;;4937276;29;20480;-89
2023/01/18 13:11:21;;;;;;;5.38;2.80;;;;;;;;;;4933512;29;20047;-88
2023/01/18 13:14:02;;;;;;;5.30;3.00;;;;;;;;;;4950080;29;20039;-89
2023/01/18 13:16:48;;;;;;;5.30;3.15;;;;;;;;;;4955635;29;20031;-89
2023/01/18 13:19:35;;;;;;;5.28;3.20;;;;;;;;;;4959859;28;20039;-90
2023/01/18 13:22:37;;;;;;;5.35;2.90;;;;;;;;;;4966690;29;20519;-87
2023/01/18 13:25:29;;;;;;;4.68;3.00;;;;;;;;;;4943512;29;20023;-87
2023/01/18 13:28:00;;;;;;;6.32;3.58;;;;;;;;;;4939112;29;20039;-87
2023/01/18 13:30:26;;;;;;;8.90;4.47;;;;;;;;;;4939086;29;20039;-86
2023/01/18 13:32:53;;;;;;;6.07;4.18;;;;;;;;;;4939124;29;20027;-89
2023/01/18 13:35:37;;;;;;;4.15;2.80;;;;;;;;;;4939213;29;20027;-88
2023/01/18 13:38:13;;;;;;;4.70;2.78;;;;;;;;;;4953689;29;20065;-88
2023/01/18 13:40:41;;;;;;;5.22;2.60;;;;;;;;;;4938100;29;20073;-87
2023/01/18 13:43:26;;;;;;;3.92;2.58;;;;;;;;;;4939190;29;20027;-87
2023/01/18 13:46:11;;;;;;;4.72;2.20;;;;;;;;;;4941116;29;20023;-87
2023/01/18 13:48:43;;;;;;;4.35;2.38;;;;;;;;;;4954514;28;20039;-90
2023/01/18 13:51:10;;;;;;;4.57;2.42;;;;;;;;;;4955186;29;20066;-88
2023/01/18 13:53:52;;;;;;;3.45;2.17;;;;;;;;;;4954992;29;20027;-87
2023/01/18 13:56:35;;;;;;;3.75;2.10;;;;;;;;;;4963225;28;20042;-93
2023/01/18 13:59:17;;;;;;;5.95;2.28;;;;;;;;;;4957213;28;20034;-90
2023/01/18 14:01:50;;;;;;;4.85;2.03;;;;;;;;;;4945909;29;20487;-88
2023/01/18 14:04:19;;;;;;;5.60;2.30;;;;;;;;;;4960909;29;20071;-86
2023/01/18 14:06:46;;;;;;;21.95;13.35;;;;;;;;;;4939257;29;20042;-90
2023/01/18 14:09:19;;;;;;;11.20;7.13;;;;;;;;;;4938115;29;20035;-87
2023/01/18 14:12:05;;;;;;;8.60;4.55;;;;;;;;;;4924537;29;20051;-84
2023/01/18 14:14:33;;;;;;;23.70;15.75;;;;;;;;;;4934127;29;20172;-86
2023/01/18 14:17:16;;;;;;;13.80;8.80;;;;;;;;;;4918088;29;20051;-85
2023/01/18 14:20:01;;;;;;;9.23;6.43;;;;;;;;;;4918917;29;20553;-87
2023/01/18 14:22:48;;;;;;;8.25;5.00;;;;;;;;;;4934411;29;20070;-86
2023/01/18 14:25:21;;;;;;;8.07;5.22;;;;;;;;;;4954816;29;20027;-87
2023/01/18 14:27:49;;;;;;;11.38;7.82;;;;;;;;;;4939724;29;20489;-87
2023/01/18 14:30:35;;;;;;;12.93;9.85;;;;;;;;;;4961456;29;20275;-91
2023/01/18 14:33:26;;;;;;;14.52;11.20;;;;;;;;;;4966262;29;20236;-92
2023/01/18 14:35:53;;;;;;;12.70;9.20;;;;;;;;;;4956311;29;20023;-89
2023/01/18 14:38:30;;;;;;;9.40;4.80;;;;;;;;;;4955584;29;20042;-86
2023/01/18 14:40:58;;;;;;;5.75;4.20;;;;;;;;;;4941947;29;20102;-90
2023/01/18 14:43:51;;;;;;;6.63;4.45;;;;;;;;;;4936437;29;20024;-87
2023/01/18 14:46:29;;;;;;;8.52;4.88;;;;;;;;;;4937791;29;20103;-87
2023/01/18 14:48:56;;;;;;;6.65;4.45;;;;;;;;;;4921930;29;20343;-88
2023/01/18 14:51:25;;;;;;;9.90;5.18;;;;;;;;;;4937355;29;20023;-93
2023/01/18 14:54:04;;;;;;;7.28;5.15;;;;;;;;;;4936780;29;20027;-93
2023/01/18 14:57:00;;;;;;;7.35;5.30;;;;;;;;;;4935805;29;20497;-88
2023/01/18 14:59:46;;;;;;;;;;;;;;;;;;;;;
2023/01/18 15:02:39;;;;;;;10.35;6.50;;;;;;;;;;4900474;29;20051;-91
2023/01/18 15:05:20;;;;;;;11.50;6.88;;;;;;;;;;4887080;29;20029;-92
2023/01/18 15:07:54;;;;;;;11.90;6.43;;;;;;;;;;4923313;29;20039;-90
2023/01/18 15:13:16;;;;;;;8.18;5.60;;;;;;;;;;4939813;29;20046;-88
2023/01/18 15:15:43;;;;;;;7.97;5.88;;;;;;;;;;4935954;29;20031;-93
2023/01/18 15:18:28;;;;;;;10.88;6.65;;;;;;;;;;4958009;29;20038;-89
2023/01/18 15:20:56;;;;;;;7.93;5.70;;;;;;;;;;4961615;29;20086;-89
2023/01/18 15:23:23;;;;;;;7.75;5.45;;;;;;;;;;4971445;29;20031;-89
2023/01/18 15:26:13;;;;;;;11.90;7.93;;;;;;;;;;4968558;28;20220;-92
2023/01/18 15:28:39;;;;;;;8.82;5.78;;;;;;;;;;4906395;29;20055;-91
2023/01/18 15:31:40;;;;;;;9.05;6.43;;;;;;;;;;4957534;29;20029;-93
2023/01/18 15:34:14;;;;;;;8.25;6.13;;;;;;;;;;4866650;29;20037;-90
2023/01/18 15:36:40;;;;;;;9.52;6.00;;;;;;;;;;4847779;29;20041;-89
2023/01/18 15:39:15;;;;;;;8.38;6.22;;;;;;;;;;4916152;29;20047;-88
2023/01/18 15:41:43;;;;;;;10.35;6.18;;;;;;;;;;4928267;29;20523;-90
2023/01/18 15:44:29;;;;;;;20.55;13.57;;;;;;;;;;4923326;29;20039;-92
2023/01/18 15:46:55;;;;;;;54.78;33.83;;;;;;;;;;4953921;29;20167;-89
2023/01/18 15:49:21;;;;;;;17.52;9.95;;;;;;;;;;4954169;29;20028;-88
2023/01/18 15:51:55;;;;;;;15.43;10.07;;;;;;;;;;4937618;29;20028;-89
2023/01/18 15:54:29;;;;;;;15.45;11.63;;;;;;;;;;4954944;29;20035;-90
2023/01/18 15:59:30;;;;;;;12.40;7.78;;;;;;;;;;5124661;23;20065;-93
2023/01/18 16:08:31;;;;;;;8.40;5.85;;;;;;;;;;4979204;28;20085;-91
2023/01/18 16:13:58;;;;;;;9.52;6.82;;;;;;;;;;4979456;28;20061;-89
2023/01/18 16:16:24;;;;;;;10.45;7.60;;;;;;;;;;4974563;28;20052;-86
2023/01/18 16:19:30;;;;;;;10.43;7.57;;;;;;;;;;4967802;28;20024;-92
2023/01/18 16:22:02;;;;;;;10.73;7.60;;;;;;;;;;4896770;29;20455;-87
2023/01/18 16:24:33;;;;;;;13.05;9.13;;;;;;;;;;4901904;29;20045;-88
2023/01/18 16:27:17;;;;;;;17.00;9.77;;;;;;;;;;4912671;29;20102;-84
2023/01/18 16:29:48;;;;;;;14.48;10.05;;;;;;;;;;4885819;29;20061;-86
2023/01/18 16:32:27;;;;;;;15.07;10.07;;;;;;;;;;4898303;28;20056;-90
2023/01/18 16:34:53;;;;;;;20.02;13.02;;;;;;;;;;4962737;28;20030;-86
2023/01/18 16:37:20;;;;;;;22.13;14.23;;;;;;;;;;4966216;28;20096;-87
2023/01/18 16:39:47;;;;;;;23.60;14.63;;;;;;;;;;4956157;29;20031;-86
2023/01/18 16:42:20;;;;;;;28.00;17.52;;;;;;;;;;4966739;28;20117;-89
2023/01/18 16:45:01;;;;;;;47.63;27.00;;;;;;;;;;4977434;28;20488;-87
2023/01/18 16:47:30;;;;;;;48.42;30.73;;;;;;;;;;4976301;28;20046;-89
2023/01/18 16:50:21;;;;;;;53.70;34.85;;;;;;;;;;4982855;28;20081;-89
2023/01/18 16:55:55;;;;;;;42.67;26.73;;;;;;;;;;4961401;29;20042;-89
2023/01/18 17:01:15;;;;;;;41.67;24.88;;;;;;;;;;4941874;29;20110;-91
2023/01/18 17:03:42;;;;;;;39.88;25.30;;;;;;;;;;4939731;29;20028;-87
2023/01/18 17:06:15;;;;;;;40.70;25.02;;;;;;;;;;4939344;29;20035;-87
2023/01/18 17:08:44;;;;;;;35.30;22.42;;;;;;;;;;4924502;29;20489;-90
2023/01/18 17:11:11;;;;;;;33.03;21.67;;;;;;;;;;4926125;29;20038;-86
2023/01/18 17:13:37;;;;;;;34.15;22.55;;;;;;;;;;4925617;29;20465;-86
2023/01/18 17:16:06;;;;;;;34.40;22.60;;;;;;;;;;4921634;29;20066;-86